createdAt,value
2023-01-25T00:02:15.429Z,5.65
2023-01-25T00:07:23.377Z,6.45
2023-01-25T00:12:29.682Z,5.68
2023-01-25T00:17:36.135Z,6.57
2023-01-25T00:22:46.542Z,6.55
2023-01-25T00:27:58.877Z,6.72
2023-01-25T00:33:29.982Z,7.03
2023-01-25T00:38:40.124Z,6.65
2023-01-25T00:43:46.268Z,7.00
2023-01-25T00:48:55.879Z,6.05
2023-01-25T00:54:03.824Z,7.05
2023-01-25T00:59:13.654Z,5.83
2023-01-25T01:04:20.599Z,7.30
2023-01-25T01:09:28.578Z,6.97
2023-01-25T01:14:35.078Z,7.97
2023-01-25T01:19:41.705Z,7.47
2023-01-25T01:24:50.805Z,7.47
2023-01-25T01:29:58.659Z,7.43
2023-01-25T01:35:05.406Z,7.55
2023-01-25T01:40:18.326Z,7.57
2023-01-25T01:46:02.149Z,8.68
2023-01-25T01:56:36.844Z,8.90
2023-01-25T02:01:46.636Z,8.88
2023-01-25T02:07:00.382Z,7.40
2023-01-25T02:12:12.806Z,10.15
2023-01-25T02:17:24.586Z,8.98
2023-01-25T02:22:42.607Z,8.80
2023-01-25T02:28:00.416Z,9.35
2023-01-25T02:33:09.825Z,9.23
2023-01-25T02:43:29.493Z,9.27
2023-01-25T02:48:35.922Z,10.32
2023-01-25T02:53:42.562Z,10.68
2023-01-25T02:58:50.538Z,9.68
2023-01-25T03:03:58.071Z,11.90
2023-01-25T03:09:05.929Z,10.88
2023-01-25T03:14:14.220Z,10.63
2023-01-25T03:19:20.792Z,10.65
2023-01-25T03:24:27.592Z,12.02
2023-01-25T03:29:36.358Z,11.65
2023-01-25T03:34:47.676Z,10.77
2023-01-25T03:39:55.351Z,11.95
2023-01-25T03:45:03.807Z,12.00
2023-01-25T03:50:12.619Z,11.77
2023-01-25T03:55:20.460Z,13.13
2023-01-25T04:00:30.937Z,13.20
2023-01-25T04:05:41.015Z,13.40
2023-01-25T04:10:53.991Z,11.48
2023-01-25T04:16:02.193Z,12.00
2023-01-25T04:21:36.150Z,14.43
2023-01-25T04:26:42.792Z,14.03
2023-01-25T04:31:51.162Z,13.95
2023-01-25T04:36:58.075Z,14.15
2023-01-25T04:42:09.427Z,13.63
2023-01-25T04:47:17.737Z,13.75
2023-01-25T04:52:26.861Z,13.93
2023-01-25T05:02:41.232Z,14.30
2023-01-25T05:07:47.654Z,10.43
2023-01-25T05:12:55.095Z,14.00
2023-01-25T05:18:04.136Z,12.82
2023-01-25T05:23:13.046Z,12.75
2023-01-25T05:28:19.577Z,15.52
2023-01-25T05:33:52.823Z,15.02
2023-01-25T05:39:00.564Z,14.38
2023-01-25T05:44:12.885Z,13.52
2023-01-25T05:49:25.916Z,16.00
2023-01-25T05:54:32.912Z,12.48
2023-01-25T05:59:44.121Z,17.00
2023-01-25T06:04:57.109Z,17.65
2023-01-25T06:10:03.738Z,15.60
2023-01-25T06:15:12.106Z,15.80
2023-01-25T06:20:21.482Z,15.15
2023-01-25T06:26:01.767Z,16.63
2023-01-25T06:31:10.407Z,14.80
2023-01-25T06:36:21.891Z,16.17
2023-01-25T06:41:29.674Z,16.90
2023-01-25T06:46:36.393Z,16.10
2023-01-25T06:51:44.439Z,16.77
2023-01-25T06:56:50.909Z,15.40
2023-01-25T07:01:57.276Z,15.60
2023-01-25T07:07:05.074Z,14.95
2023-01-25T07:12:11.657Z,15.60
2023-01-25T07:17:18.401Z,14.77
2023-01-25T07:22:27.335Z,14.52
2023-01-25T07:27:35.796Z,14.75
2023-01-25T07:32:42.341Z,15.07
2023-01-25T07:37:50.771Z,14.85
2023-01-25T07:42:57.295Z,15.90
2023-01-25T07:48:11.382Z,15.88
2023-01-25T07:53:20.531Z,14.23
2023-01-25T07:58:27.232Z,16.33
2023-01-25T08:03:33.734Z,14.43
2023-01-25T08:08:44.170Z,15.77
2023-01-25T08:13:51.118Z,14.52
2023-01-25T08:19:00.008Z,15.55
2023-01-25T08:24:09.880Z,16.23
2023-01-25T08:29:16.224Z,14.80
2023-01-25T08:34:22.919Z,17.98
2023-01-25T08:39:30.961Z,16.38
2023-01-25T08:44:37.484Z,17.73
2023-01-25T08:49:43.659Z,17.63
2023-01-25T08:54:51.451Z,19.90
2023-01-25T08:59:57.652Z,14.98
2023-01-25T09:05:03.948Z,15.13
2023-01-25T09:10:13.272Z,15.65
2023-01-25T09:15:19.807Z,16.38
2023-01-25T09:20:26.964Z,16.38
2023-01-25T09:25:36.087Z,16.35
2023-01-25T09:31:24.428Z,17.65
2023-01-25T09:36:39.013Z,17.02
2023-01-25T09:42:37.005Z,16.42
2023-01-25T09:47:50.528Z,16.40
2023-01-25T09:53:36.842Z,15.38
2023-01-25T09:58:48.402Z,16.63
2023-01-25T10:04:02.983Z,17.42
2023-01-25T10:09:28.947Z,17.88
2023-01-25T10:14:37.276Z,18.00
2023-01-25T10:20:03.034Z,17.58
2023-01-25T10:25:34.018Z,18.40
2023-01-25T10:30:54.769Z,19.40
2023-01-25T10:36:06.193Z,17.60
2023-01-25T10:41:20.283Z,20.02
2023-01-25T10:46:29.544Z,17.55
2023-01-25T10:51:37.621Z,19.42
2023-01-25T10:56:46.753Z,17.83
2023-01-25T11:07:02.927Z,17.30
2023-01-25T11:12:20.512Z,16.60
2023-01-25T11:17:32.767Z,18.05
2023-01-25T11:22:39.564Z,18.10
2023-01-25T11:27:46.580Z,16.77
2023-01-25T11:32:54.775Z,16.13
2023-01-25T11:38:13.178Z,21.53
2023-01-25T11:43:50.127Z,13.87
2023-01-25T11:49:21.564Z,15.75
2023-01-25T11:54:51.251Z,16.88
2023-01-25T12:00:18.950Z,16.88
2023-01-25T12:05:45.336Z,15.00
2023-01-25T12:11:02.390Z,15.80
2023-01-25T12:16:32.262Z,13.68
2023-01-25T12:22:07.960Z,13.25
2023-01-25T12:27:31.253Z,13.93
2023-01-25T12:32:44.631Z,13.82
2023-01-25T12:37:58.964Z,12.13
2023-01-25T12:43:11.489Z,13.13
2023-01-25T12:48:23.317Z,13.20
2023-01-25T12:53:38.877Z,13.07
2023-01-25T12:58:55.747Z,13.95
2023-01-25T13:04:20.509Z,13.07
2023-01-25T13:09:36.144Z,12.60
2023-01-25T13:14:44.354Z,13.65
2023-01-25T13:19:51.605Z,13.67
2023-01-25T13:25:22.995Z,14.52
2023-01-25T13:30:35.271Z,16.55
2023-01-25T13:35:46.217Z,15.82
2023-01-25T13:41:14.747Z,15.63
2023-01-25T13:46:26.507Z,16.55
2023-01-25T13:51:40.730Z,15.75
2023-01-25T13:57:04.503Z,16.77
2023-01-25T14:02:20.670Z,17.27
2023-01-25T14:07:33.983Z,16.65
2023-01-25T14:12:44.994Z,18.35
2023-01-25T14:18:19.386Z,18.58
2023-01-25T14:23:28.379Z,18.63
2023-01-25T14:33:48.269Z,18.38
2023-01-25T14:38:56.144Z,18.05
2023-01-25T14:44:06.798Z,19.13
2023-01-25T14:49:25.935Z,18.73
2023-01-25T14:54:36.401Z,19.67
2023-01-25T14:59:48.458Z,19.40
2023-01-25T15:05:10.988Z,18.17
2023-01-25T15:10:24.593Z,17.85
2023-01-25T15:15:35.723Z,19.35
2023-01-25T15:20:43.907Z,23.42
2023-01-25T15:25:55.804Z,17.53
2023-01-25T15:31:07.015Z,18.80
2023-01-25T15:36:14.772Z,18.27
2023-01-25T15:41:21.665Z,19.23
2023-01-25T15:46:32.466Z,17.95
2023-01-25T15:51:39.473Z,17.48
2023-01-25T15:56:47.711Z,17.92
2023-01-25T16:01:58.319Z,17.20
2023-01-25T16:07:05.771Z,17.75
2023-01-25T16:12:15.779Z,17.70
2023-01-25T16:17:26.033Z,18.00
2023-01-25T16:22:34.036Z,17.13
2023-01-25T16:27:42.652Z,16.65
2023-01-25T16:32:53.372Z,16.80
2023-01-25T16:38:01.056Z,15.93
2023-01-25T16:43:09.207Z,12.63
2023-01-25T16:48:20.168Z,15.50
2023-01-25T16:53:27.797Z,16.95
2023-01-25T16:58:36.698Z,17.23
2023-01-25T17:09:02.189Z,18.98
2023-01-25T17:14:16.090Z,17.48
2023-01-25T17:19:27.184Z,16.05
2023-01-25T17:24:38.954Z,17.13
2023-01-25T17:29:48.287Z,15.77
2023-01-25T17:35:01.917Z,13.48
2023-01-25T17:40:13.948Z,16.13
2023-01-25T17:45:22.938Z,17.35
2023-01-25T17:50:35.972Z,15.88
2023-01-25T17:55:48.695Z,22.25
2023-01-25T18:01:12.972Z,17.63
2023-01-25T18:06:28.686Z,18.90
2023-01-25T18:11:52.221Z,17.05
2023-01-25T18:17:01.541Z,16.98
2023-01-25T18:22:14.494Z,16.55
2023-01-25T18:27:25.394Z,17.05
2023-01-25T18:32:39.346Z,16.90
2023-01-25T18:37:50.566Z,17.90
2023-01-25T18:43:00.667Z,16.65
2023-01-25T18:48:13.948Z,18.35
2023-01-25T18:53:28.498Z,17.42
2023-01-25T18:58:42.107Z,16.52
2023-01-25T19:03:55.653Z,17.75
2023-01-25T19:09:11.446Z,18.45
2023-01-25T19:14:21.894Z,16.88
2023-01-25T19:19:34.428Z,20.80
2023-01-25T19:24:52.925Z,21.52
2023-01-25T19:30:04.123Z,20.20
2023-01-25T19:35:15.081Z,18.02
2023-01-25T19:40:28.555Z,14.43
2023-01-25T19:45:38.851Z,15.30
2023-01-25T19:50:49.960Z,16.98
2023-01-25T19:56:08.274Z,18.45
2023-01-25T20:01:21.328Z,16.02
2023-01-25T20:06:34.015Z,19.67
2023-01-25T20:11:48.261Z,21.92
2023-01-25T20:17:01.480Z,18.10
2023-01-25T20:22:11.175Z,16.65
2023-01-25T20:27:30.149Z,17.13
2023-01-25T20:32:48.616Z,17.15
2023-01-25T20:37:58.180Z,16.67
2023-01-25T20:43:11.899Z,20.00
2023-01-25T20:48:26.833Z,17.67
2023-01-25T20:53:42.960Z,17.90
2023-01-25T20:58:56.737Z,19.25
2023-01-25T21:04:06.513Z,18.33
2023-01-25T21:09:29.230Z,19.63
2023-01-25T21:14:39.672Z,18.73
2023-01-25T21:19:48.351Z,18.65
2023-01-25T21:25:02.738Z,18.05
2023-01-25T21:30:23.194Z,16.55
2023-01-25T21:35:34.953Z,18.17
2023-01-25T21:40:44.437Z,17.23
2023-01-25T21:46:11.551Z,17.33
2023-01-25T21:51:40.303Z,14.67
2023-01-25T21:56:48.793Z,16.08
2023-01-25T22:01:59.247Z,17.70
2023-01-25T22:07:06.868Z,15.82
2023-01-25T22:12:13.718Z,16.10
2023-01-25T22:17:23.007Z,17.83
2023-01-25T22:27:47.776Z,18.30
2023-01-25T22:32:55.936Z,22.73
2023-01-25T22:38:02.391Z,19.77
2023-01-25T22:43:10.428Z,22.85
2023-01-25T22:48:18.464Z,22.13
2023-01-25T22:53:24.947Z,30.83
2023-01-25T22:58:32.368Z,28.45
2023-01-25T23:03:40.653Z,23.27
2023-01-25T23:08:49.438Z,20.45
2023-01-25T23:14:13.489Z,19.27
2023-01-25T23:19:21.573Z,16.35
2023-01-25T23:24:28.525Z,17.17
2023-01-25T23:29:35.000Z,19.48
2023-01-25T23:34:45.029Z,18.73
2023-01-25T23:39:51.831Z,18.85
2023-01-25T23:45:01.154Z,17.63
2023-01-25T23:50:13.629Z,17.13
2023-01-25T23:55:20.489Z,18.70
